sensor_id;sensor_type;location;lat;lon;timestamp;P1;durP1;ratioP1;P2;durP2;ratioP2
59207;SDS011;44977;53.132;6.408;2022-07-23T00:00:50;8.85;;;5.53;;
59207;SDS011;44977;53.132;6.408;2022-07-23T00:05:51;8.63;;;5.40;;
59207;SDS011;44977;53.132;6.408;2022-07-23T00:10:51;10.18;;;5.97;;
59207;SDS011;44977;53.132;6.408;2022-07-23T00:15:52;9.45;;;5.88;;
59207;SDS011;44977;53.132;6.408;2022-07-23T00:20:53;9.00;;;5.72;;
59207;SDS011;44977;53.132;6.408;2022-07-23T00:25:54;9.55;;;6.07;;
59207;SDS011;44977;53.132;6.408;2022-07-23T00:30:55;9.68;;;5.45;;
59207;SDS011;44977;53.132;6.408;2022-07-23T00:35:55;9.13;;;6.40;;
59207;SDS011;44977;53.132;6.408;2022-07-23T00:40:56;10.38;;;6.00;;
59207;SDS011;44977;53.132;6.408;2022-07-23T00:45:57;9.68;;;5.75;;
59207;SDS011;44977;53.132;6.408;2022-07-23T00:50:57;11.45;;;6.38;;
59207;SDS011;44977;53.132;6.408;2022-07-23T00:55:58;8.82;;;5.72;;
59207;SDS011;44977;53.132;6.408;2022-07-23T01:00:59;9.80;;;5.80;;
59207;SDS011;44977;53.132;6.408;2022-07-23T01:05:59;9.75;;;5.80;;
59207;SDS011;44977;53.132;6.408;2022-07-23T01:11:00;10.00;;;6.05;;
59207;SDS011;44977;53.132;6.408;2022-07-23T01:16:01;11.05;;;5.85;;
59207;SDS011;44977;53.132;6.408;2022-07-23T01:21:02;9.27;;;5.90;;
59207;SDS011;44977;53.132;6.408;2022-07-23T01:26:02;9.80;;;6.78;;
59207;SDS011;44977;53.132;6.408;2022-07-23T01:31:03;10.73;;;6.03;;
59207;SDS011;44977;53.132;6.408;2022-07-23T01:36:04;9.32;;;6.60;;
59207;SDS011;44977;53.132;6.408;2022-07-23T01:41:05;9.35;;;5.97;;
59207;SDS011;44977;53.132;6.408;2022-07-23T01:46:06;8.55;;;6.32;;
59207;SDS011;44977;53.132;6.408;2022-07-23T01:51:06;10.70;;;6.40;;
59207;SDS011;44977;53.132;6.408;2022-07-23T01:56:07;10.13;;;6.32;;
59207;SDS011;44977;53.132;6.408;2022-07-23T02:01:08;8.95;;;6.07;;
59207;SDS011;44977;53.132;6.408;2022-07-23T02:06:08;9.48;;;6.50;;
59207;SDS011;44977;53.132;6.408;2022-07-23T02:11:09;8.82;;;6.13;;
59207;SDS011;44977;53.132;6.408;2022-07-23T02:16:10;11.43;;;7.13;;
59207;SDS011;44977;53.132;6.408;2022-07-23T02:21:10;13.98;;;7.68;;
59207;SDS011;44977;53.132;6.408;2022-07-23T02:26:11;10.90;;;7.55;;
59207;SDS011;44977;53.132;6.408;2022-07-23T02:31:12;11.15;;;7.55;;
59207;SDS011;44977;53.132;6.408;2022-07-23T02:36:12;9.93;;;7.30;;
59207;SDS011;44977;53.132;6.408;2022-07-23T02:41:13;10.35;;;6.78;;
59207;SDS011;44977;53.132;6.408;2022-07-23T02:46:14;9.75;;;6.88;;
59207;SDS011;44977;53.132;6.408;2022-07-23T02:51:14;9.57;;;7.00;;
59207;SDS011;44977;53.132;6.408;2022-07-23T02:56:15;9.18;;;6.65;;
59207;SDS011;44977;53.132;6.408;2022-07-23T03:01:16;11.23;;;7.18;;
59207;SDS011;44977;53.132;6.408;2022-07-23T03:06:17;10.32;;;7.18;;
59207;SDS011;44977;53.132;6.408;2022-07-23T03:11:17;11.25;;;7.22;;
59207;SDS011;44977;53.132;6.408;2022-07-23T03:16:18;11.45;;;6.85;;
59207;SDS011;44977;53.132;6.408;2022-07-23T03:21:19;9.02;;;6.07;;
59207;SDS011;44977;53.132;6.408;2022-07-23T03:26:19;10.55;;;6.43;;
59207;SDS011;44977;53.132;6.408;2022-07-23T03:31:20;11.25;;;6.32;;
59207;SDS011;44977;53.132;6.408;2022-07-23T03:36:21;9.52;;;5.97;;
59207;SDS011;44977;53.132;6.408;2022-07-23T03:41:21;8.98;;;5.75;;
59207;SDS011;44977;53.132;6.408;2022-07-23T03:46:22;10.65;;;6.40;;
59207;SDS011;44977;53.132;6.408;2022-07-23T03:51:23;9.18;;;5.95;;
59207;SDS011;44977;53.132;6.408;2022-07-23T03:56:23;9.43;;;5.82;;
59207;SDS011;44977;53.132;6.408;2022-07-23T04:01:24;9.98;;;6.22;;
59207;SDS011;44977;53.132;6.408;2022-07-23T04:06:25;10.18;;;6.07;;
59207;SDS011;44977;53.132;6.408;2022-07-23T04:11:25;8.32;;;5.95;;
59207;SDS011;44977;53.132;6.408;2022-07-23T04:16:26;9.15;;;5.93;;
59207;SDS011;44977;53.132;6.408;2022-07-23T04:21:28;9.80;;;5.70;;
59207;SDS011;44977;53.132;6.408;2022-07-23T04:26:29;8.43;;;5.35;;
59207;SDS011;44977;53.132;6.408;2022-07-23T04:31:29;8.18;;;5.60;;
59207;SDS011;44977;53.132;6.408;2022-07-23T04:36:30;10.30;;;5.70;;
59207;SDS011;44977;53.132;6.408;2022-07-23T04:41:31;8.23;;;5.70;;
59207;SDS011;44977;53.132;6.408;2022-07-23T04:46:31;10.25;;;6.28;;
59207;SDS011;44977;53.132;6.408;2022-07-23T04:51:32;10.80;;;5.90;;
59207;SDS011;44977;53.132;6.408;2022-07-23T04:56:33;8.82;;;6.22;;
59207;SDS011;44977;53.132;6.408;2022-07-23T05:01:33;8.80;;;5.70;;
59207;SDS011;44977;53.132;6.408;2022-07-23T05:06:34;8.82;;;5.30;;
59207;SDS011;44977;53.132;6.408;2022-07-23T05:11:35;9.15;;;5.40;;
59207;SDS011;44977;53.132;6.408;2022-07-23T05:16:35;8.88;;;6.05;;
59207;SDS011;44977;53.132;6.408;2022-07-23T05:21:36;10.57;;;6.40;;
59207;SDS011;44977;53.132;6.408;2022-07-23T05:26:37;9.80;;;5.50;;
59207;SDS011;44977;53.132;6.408;2022-07-23T05:31:37;11.32;;;5.88;;
59207;SDS011;44977;53.132;6.408;2022-07-23T05:36:38;9.15;;;5.93;;
59207;SDS011;44977;53.132;6.408;2022-07-23T05:41:39;8.27;;;5.72;;
59207;SDS011;44977;53.132;6.408;2022-07-23T05:46:39;9.40;;;5.57;;
59207;SDS011;44977;53.132;6.408;2022-07-23T05:51:40;7.40;;;4.70;;
59207;SDS011;44977;53.132;6.408;2022-07-23T05:56:41;7.78;;;4.68;;
59207;SDS011;44977;53.132;6.408;2022-07-23T06:01:41;9.10;;;5.25;;
59207;SDS011;44977;53.132;6.408;2022-07-23T06:06:42;10.27;;;4.13;;
59207;SDS011;44977;53.132;6.408;2022-07-23T06:11:43;8.23;;;4.07;;
59207;SDS011;44977;53.132;6.408;2022-07-23T06:16:44;7.47;;;3.35;;
59207;SDS011;44977;53.132;6.408;2022-07-23T06:21:44;6.07;;;2.40;;
59207;SDS011;44977;53.132;6.408;2022-07-23T06:26:45;5.78;;;2.00;;
59207;SDS011;44977;53.132;6.408;2022-07-23T06:31:46;6.20;;;1.60;;
59207;SDS011;44977;53.132;6.408;2022-07-23T06:36:46;3.47;;;1.30;;
59207;SDS011;44977;53.132;6.408;2022-07-23T06:41:47;4.95;;;1.55;;
59207;SDS011;44977;53.132;6.408;2022-07-23T06:46:48;4.57;;;1.50;;
59207;SDS011;44977;53.132;6.408;2022-07-23T06:51:48;3.78;;;1.25;;
59207;SDS011;44977;53.132;6.408;2022-07-23T06:56:49;1.80;;;0.90;;
59207;SDS011;44977;53.132;6.408;2022-07-23T07:01:50;4.68;;;1.45;;
59207;SDS011;44977;53.132;6.408;2022-07-23T07:06:51;3.05;;;1.00;;
59207;SDS011;44977;53.132;6.408;2022-07-23T07:11:52;2.58;;;1.20;;
59207;SDS011;44977;53.132;6.408;2022-07-23T07:16:52;3.30;;;1.00;;
59207;SDS011;44977;53.132;6.408;2022-07-23T07:21:53;1.45;;;0.75;;
59207;SDS011;44977;53.132;6.408;2022-07-23T07:26:54;2.42;;;0.80;;
59207;SDS011;44977;53.132;6.408;2022-07-23T07:31:54;1.38;;;0.70;;
59207;SDS011;44977;53.132;6.408;2022-07-23T07:36:55;1.75;;;0.80;;
59207;SDS011;44977;53.132;6.408;2022-07-23T07:41:56;2.92;;;0.90;;
59207;SDS011;44977;53.132;6.408;2022-07-23T07:46:56;1.88;;;0.68;;
59207;SDS011;44977;53.132;6.408;2022-07-23T07:51:57;2.25;;;0.80;;
59207;SDS011;44977;53.132;6.408;2022-07-23T07:56:58;1.65;;;0.90;;
59207;SDS011;44977;53.132;6.408;2022-07-23T08:01:58;1.63;;;0.68;;
59207;SDS011;44977;53.132;6.408;2022-07-23T08:06:59;2.67;;;0.80;;
59207;SDS011;44977;53.132;6.408;2022-07-23T08:12:02;2.70;;;0.70;;
59207;SDS011;44977;53.132;6.408;2022-07-23T08:17:03;1.25;;;0.68;;
59207;SDS011;44977;53.132;6.408;2022-07-23T08:22:03;1.95;;;0.73;;
59207;SDS011;44977;53.132;6.408;2022-07-23T08:27:04;2.97;;;1.10;;
59207;SDS011;44977;53.132;6.408;2022-07-23T08:32:05;3.05;;;0.80;;
59207;SDS011;44977;53.132;6.408;2022-07-23T08:37:05;3.45;;;1.00;;
59207;SDS011;44977;53.132;6.408;2022-07-23T08:42:06;1.77;;;0.93;;
59207;SDS011;44977;53.132;6.408;2022-07-23T08:47:07;2.30;;;1.00;;
59207;SDS011;44977;53.132;6.408;2022-07-23T08:52:09;3.45;;;1.05;;
59207;SDS011;44977;53.132;6.408;2022-07-23T08:57:10;5.53;;;1.38;;
59207;SDS011;44977;53.132;6.408;2022-07-23T09:02:11;3.42;;;0.90;;
59207;SDS011;44977;53.132;6.408;2022-07-23T09:07:12;4.43;;;0.98;;
59207;SDS011;44977;53.132;6.408;2022-07-23T09:12:13;3.60;;;1.20;;
59207;SDS011;44977;53.132;6.408;2022-07-23T09:17:15;3.45;;;1.00;;
59207;SDS011;44977;53.132;6.408;2022-07-23T09:22:18;2.50;;;0.90;;
59207;SDS011;44977;53.132;6.408;2022-07-23T09:27:19;3.97;;;1.30;;
59207;SDS011;44977;53.132;6.408;2022-07-23T09:32:19;4.65;;;0.98;;
59207;SDS011;44977;53.132;6.408;2022-07-23T09:37:20;4.10;;;1.00;;
59207;SDS011;44977;53.132;6.408;2022-07-23T09:42:21;5.78;;;1.13;;
59207;SDS011;44977;53.132;6.408;2022-07-23T09:47:24;3.35;;;1.10;;
59207;SDS011;44977;53.132;6.408;2022-07-23T09:52:30;4.72;;;1.08;;
59207;SDS011;44977;53.132;6.408;2022-07-23T10:02:34;4.35;;;1.08;;
59207;SDS011;44977;53.132;6.408;2022-07-23T10:07:39;3.65;;;0.90;;
59207;SDS011;44977;53.132;6.408;2022-07-23T10:12:41;7.28;;;1.40;;
59207;SDS011;44977;53.132;6.408;2022-07-23T10:18:02;2.97;;;1.30;;
59207;SDS011;44977;53.132;6.408;2022-07-23T10:28:26;2.78;;;0.90;;
59207;SDS011;44977;53.132;6.408;2022-07-23T10:34:17;5.00;;;1.30;;
59207;SDS011;44977;53.132;6.408;2022-07-23T10:39:24;4.22;;;1.25;;
59207;SDS011;44977;53.132;6.408;2022-07-23T10:44:37;3.42;;;1.05;;
59207;SDS011;44977;53.132;6.408;2022-07-23T10:49:46;4.72;;;1.20;;
59207;SDS011;44977;53.132;6.408;2022-07-23T10:54:51;6.88;;;1.40;;
59207;SDS011;44977;53.132;6.408;2022-07-23T11:05:17;5.05;;;1.20;;
59207;SDS011;44977;53.132;6.408;2022-07-23T11:16:03;4.20;;;1.30;;
59207;SDS011;44977;53.132;6.408;2022-07-23T11:21:22;19.63;;;2.83;;
59207;SDS011;44977;53.132;6.408;2022-07-23T11:31:51;4.03;;;1.50;;
59207;SDS011;44977;53.132;6.408;2022-07-23T11:36:55;3.42;;;1.23;;
59207;SDS011;44977;53.132;6.408;2022-07-23T11:41:56;3.60;;;1.35;;
59207;SDS011;44977;53.132;6.408;2022-07-23T11:46:59;4.72;;;1.40;;
59207;SDS011;44977;53.132;6.408;2022-07-23T11:52:14;3.20;;;1.38;;
59207;SDS011;44977;53.132;6.408;2022-07-23T11:57:15;4.13;;;1.38;;
59207;SDS011;44977;53.132;6.408;2022-07-23T12:02:16;5.78;;;1.50;;
59207;SDS011;44977;53.132;6.408;2022-07-23T12:12:36;4.40;;;1.58;;
59207;SDS011;44977;53.132;6.408;2022-07-23T12:17:49;3.38;;;1.35;;
59207;SDS011;44977;53.132;6.408;2022-07-23T12:22:52;5.38;;;2.20;;
59207;SDS011;44977;53.132;6.408;2022-07-23T12:33:05;6.50;;;1.85;;
59207;SDS011;44977;53.132;6.408;2022-07-23T12:38:11;3.58;;;1.50;;
59207;SDS011;44977;53.132;6.408;2022-07-23T12:43:32;3.38;;;1.25;;
59207;SDS011;44977;53.132;6.408;2022-07-23T12:53:53;3.00;;;1.20;;
59207;SDS011;44977;53.132;6.408;2022-07-23T13:04:02;4.00;;;1.40;;
59207;SDS011;44977;53.132;6.408;2022-07-23T13:09:04;4.32;;;1.20;;
59207;SDS011;44977;53.132;6.408;2022-07-23T13:14:08;3.20;;;1.00;;
59207;SDS011;44977;53.132;6.408;2022-07-23T13:19:08;5.03;;;1.20;;
59207;SDS011;44977;53.132;6.408;2022-07-23T13:24:10;6.70;;;1.70;;
59207;SDS011;44977;53.132;6.408;2022-07-23T13:29:11;3.30;;;1.10;;
59207;SDS011;44977;53.132;6.408;2022-07-23T13:34:12;3.95;;;1.30;;
59207;SDS011;44977;53.132;6.408;2022-07-23T13:39:13;2.58;;;1.27;;
59207;SDS011;44977;53.132;6.408;2022-07-23T13:44:13;4.80;;;1.38;;
59207;SDS011;44977;53.132;6.408;2022-07-23T13:49:14;3.42;;;1.10;;
59207;SDS011;44977;53.132;6.408;2022-07-23T13:54:15;5.97;;;1.75;;
59207;SDS011;44977;53.132;6.408;2022-07-23T13:59:16;3.30;;;1.33;;
59207;SDS011;44977;53.132;6.408;2022-07-23T14:04:16;4.60;;;1.20;;
59207;SDS011;44977;53.132;6.408;2022-07-23T14:09:17;3.03;;;1.10;;
59207;SDS011;44977;53.132;6.408;2022-07-23T14:14:18;3.30;;;1.30;;
59207;SDS011;44977;53.132;6.408;2022-07-23T14:19:19;3.85;;;1.67;;
59207;SDS011;44977;53.132;6.408;2022-07-23T14:24:19;4.53;;;1.40;;
59207;SDS011;44977;53.132;6.408;2022-07-23T14:29:20;3.10;;;1.30;;
59207;SDS011;44977;53.132;6.408;2022-07-23T14:34:21;3.42;;;1.20;;
59207;SDS011;44977;53.132;6.408;2022-07-23T14:39:21;2.75;;;1.30;;
59207;SDS011;44977;53.132;6.408;2022-07-23T14:44:22;4.22;;;1.60;;
59207;SDS011;44977;53.132;6.408;2022-07-23T14:49:23;3.67;;;1.40;;
59207;SDS011;44977;53.132;6.408;2022-07-23T14:54:25;3.22;;;1.60;;
59207;SDS011;44977;53.132;6.408;2022-07-23T14:59:27;3.88;;;1.42;;
59207;SDS011;44977;53.132;6.408;2022-07-23T15:04:28;3.95;;;1.40;;
59207;SDS011;44977;53.132;6.408;2022-07-23T15:09:29;3.75;;;1.30;;
59207;SDS011;44977;53.132;6.408;2022-07-23T15:14:29;1.77;;;1.20;;
59207;SDS011;44977;53.132;6.408;2022-07-23T15:19:30;2.45;;;1.10;;
59207;SDS011;44977;53.132;6.408;2022-07-23T15:24:31;2.13;;;1.23;;
59207;SDS011;44977;53.132;6.408;2022-07-23T15:29:31;4.95;;;1.40;;
59207;SDS011;44977;53.132;6.408;2022-07-23T15:34:32;4.38;;;1.30;;
59207;SDS011;44977;53.132;6.408;2022-07-23T15:39:33;3.10;;;1.20;;
59207;SDS011;44977;53.132;6.408;2022-07-23T15:44:34;3.03;;;1.20;;
59207;SDS011;44977;53.132;6.408;2022-07-23T15:49:34;3.53;;;1.20;;
59207;SDS011;44977;53.132;6.408;2022-07-23T15:54:35;3.13;;;1.40;;
59207;SDS011;44977;53.132;6.408;2022-07-23T15:59:37;3.40;;;1.38;;
59207;SDS011;44977;53.132;6.408;2022-07-23T16:04:38;2.92;;;1.13;;
59207;SDS011;44977;53.132;6.408;2022-07-23T16:09:39;2.63;;;1.30;;
59207;SDS011;44977;53.132;6.408;2022-07-23T16:14:39;3.38;;;1.58;;
59207;SDS011;44977;53.132;6.408;2022-07-23T16:19:40;4.00;;;1.30;;
59207;SDS011;44977;53.132;6.408;2022-07-23T16:24:44;3.83;;;1.30;;
59207;SDS011;44977;53.132;6.408;2022-07-23T16:29:44;2.40;;;1.25;;
59207;SDS011;44977;53.132;6.408;2022-07-23T16:34:45;4.22;;;1.48;;
59207;SDS011;44977;53.132;6.408;2022-07-23T16:39:46;5.43;;;1.77;;
59207;SDS011;44977;53.132;6.408;2022-07-23T16:44:47;4.68;;;1.67;;
59207;SDS011;44977;53.132;6.408;2022-07-23T16:49:47;3.38;;;1.38;;
59207;SDS011;44977;53.132;6.408;2022-07-23T16:54:48;2.65;;;1.42;;
59207;SDS011;44977;53.132;6.408;2022-07-23T16:59:49;4.70;;;1.95;;
59207;SDS011;44977;53.132;6.408;2022-07-23T17:04:49;4.50;;;1.60;;
59207;SDS011;44977;53.132;6.408;2022-07-23T17:09:50;4.07;;;1.80;;
59207;SDS011;44977;53.132;6.408;2022-07-23T17:14:51;3.50;;;1.60;;
59207;SDS011;44977;53.132;6.408;2022-07-23T17:19:51;3.78;;;1.80;;
59207;SDS011;44977;53.132;6.408;2022-07-23T17:24:52;3.38;;;1.63;;
59207;SDS011;44977;53.132;6.408;2022-07-23T17:29:53;3.83;;;1.50;;
59207;SDS011;44977;53.132;6.408;2022-07-23T17:34:53;4.35;;;1.48;;
59207;SDS011;44977;53.132;6.408;2022-07-23T17:39:54;4.85;;;1.60;;
59207;SDS011;44977;53.132;6.408;2022-07-23T17:44:55;6.95;;;1.63;;
59207;SDS011;44977;53.132;6.408;2022-07-23T17:49:56;3.15;;;1.42;;
59207;SDS011;44977;53.132;6.408;2022-07-23T17:54:56;3.45;;;1.60;;
59207;SDS011;44977;53.132;6.408;2022-07-23T17:59:57;6.80;;;1.95;;
59207;SDS011;44977;53.132;6.408;2022-07-23T18:04:58;4.03;;;1.50;;
59207;SDS011;44977;53.132;6.408;2022-07-23T18:09:58;3.25;;;1.70;;
59207;SDS011;44977;53.132;6.408;2022-07-23T18:14:59;4.63;;;1.60;;
59207;SDS011;44977;53.132;6.408;2022-07-23T18:20:00;4.30;;;1.50;;
59207;SDS011;44977;53.132;6.408;2022-07-23T18:25:03;2.97;;;1.50;;
59207;SDS011;44977;53.132;6.408;2022-07-23T18:30:06;3.28;;;1.70;;
59207;SDS011;44977;53.132;6.408;2022-07-23T18:35:08;3.28;;;1.40;;
59207;SDS011;44977;53.132;6.408;2022-07-23T18:40:09;4.47;;;1.77;;
59207;SDS011;44977;53.132;6.408;2022-07-23T18:45:10;4.28;;;1.40;;
59207;SDS011;44977;53.132;6.408;2022-07-23T18:50:12;3.70;;;1.27;;
59207;SDS011;44977;53.132;6.408;2022-07-23T18:55:12;5.45;;;1.65;;
59207;SDS011;44977;53.132;6.408;2022-07-23T19:00:13;2.97;;;1.30;;
59207;SDS011;44977;53.132;6.408;2022-07-23T19:05:14;4.32;;;1.48;;
59207;SDS011;44977;53.132;6.408;2022-07-23T19:10:15;5.55;;;1.60;;
59207;SDS011;44977;53.132;6.408;2022-07-23T19:15:17;4.88;;;1.63;;
59207;SDS011;44977;53.132;6.408;2022-07-23T19:20:17;3.63;;;1.40;;
59207;SDS011;44977;53.132;6.408;2022-07-23T19:25:18;3.28;;;1.60;;
59207;SDS011;44977;53.132;6.408;2022-07-23T19:30:19;3.33;;;1.55;;
59207;SDS011;44977;53.132;6.408;2022-07-23T19:35:19;4.70;;;1.70;;
59207;SDS011;44977;53.132;6.408;2022-07-23T19:40:20;3.40;;;1.40;;
59207;SDS011;44977;53.132;6.408;2022-07-23T19:45:21;4.35;;;1.95;;
59207;SDS011;44977;53.132;6.408;2022-07-23T19:50:22;4.32;;;1.80;;
59207;SDS011;44977;53.132;6.408;2022-07-23T19:55:24;5.97;;;1.70;;
59207;SDS011;44977;53.132;6.408;2022-07-23T20:00:25;4.72;;;1.80;;
59207;SDS011;44977;53.132;6.408;2022-07-23T20:05:26;3.63;;;1.70;;
59207;SDS011;44977;53.132;6.408;2022-07-23T20:10:27;4.53;;;2.08;;
59207;SDS011;44977;53.132;6.408;2022-07-23T20:15:27;5.20;;;2.35;;
59207;SDS011;44977;53.132;6.408;2022-07-23T20:20:28;5.00;;;1.98;;
59207;SDS011;44977;53.132;6.408;2022-07-23T20:25:29;5.05;;;2.00;;
59207;SDS011;44977;53.132;6.408;2022-07-23T20:30:30;4.78;;;2.00;;
59207;SDS011;44977;53.132;6.408;2022-07-23T20:35:31;5.38;;;2.08;;
59207;SDS011;44977;53.132;6.408;2022-07-23T20:40:32;5.70;;;2.45;;
59207;SDS011;44977;53.132;6.408;2022-07-23T20:45:33;4.80;;;2.10;;
59207;SDS011;44977;53.132;6.408;2022-07-23T20:50:33;7.18;;;2.63;;
59207;SDS011;44977;53.132;6.408;2022-07-23T20:55:36;5.72;;;2.35;;
59207;SDS011;44977;53.132;6.408;2022-07-23T21:00:37;5.35;;;2.25;;
59207;SDS011;44977;53.132;6.408;2022-07-23T21:05:38;6.80;;;2.50;;
59207;SDS011;44977;53.132;6.408;2022-07-23T21:10:40;6.07;;;2.30;;
59207;SDS011;44977;53.132;6.408;2022-07-23T21:15:40;5.63;;;2.42;;
59207;SDS011;44977;53.132;6.408;2022-07-23T21:20:41;5.30;;;2.30;;
59207;SDS011;44977;53.132;6.408;2022-07-23T21:26:01;6.10;;;2.38;;
59207;SDS011;44977;53.132;6.408;2022-07-23T21:31:02;7.80;;;2.78;;
59207;SDS011;44977;53.132;6.408;2022-07-23T21:36:03;7.13;;;2.50;;
59207;SDS011;44977;53.132;6.408;2022-07-23T21:41:04;6.03;;;2.70;;
59207;SDS011;44977;53.132;6.408;2022-07-23T21:46:05;6.60;;;2.90;;
59207;SDS011;44977;53.132;6.408;2022-07-23T21:51:06;5.63;;;3.00;;
59207;SDS011;44977;53.132;6.408;2022-07-23T21:56:07;7.55;;;3.50;;
59207;SDS011;44977;53.132;6.408;2022-07-23T22:01:07;5.93;;;3.33;;
59207;SDS011;44977;53.132;6.408;2022-07-23T22:06:08;6.93;;;3.58;;
59207;SDS011;44977;53.132;6.408;2022-07-23T22:11:09;6.35;;;3.28;;
59207;SDS011;44977;53.132;6.408;2022-07-23T22:16:10;7.60;;;3.30;;
59207;SDS011;44977;53.132;6.408;2022-07-23T22:21:10;7.10;;;3.45;;
59207;SDS011;44977;53.132;6.408;2022-07-23T22:26:11;6.65;;;3.20;;
59207;SDS011;44977;53.132;6.408;2022-07-23T22:31:12;8.25;;;3.30;;
59207;SDS011;44977;53.132;6.408;2022-07-23T22:36:12;6.05;;;3.15;;
59207;SDS011;44977;53.132;6.408;2022-07-23T22:41:13;7.20;;;3.67;;
59207;SDS011;44977;53.132;6.408;2022-07-23T22:46:14;7.18;;;3.20;;
59207;SDS011;44977;53.132;6.408;2022-07-23T22:51:15;6.72;;;3.80;;
59207;SDS011;44977;53.132;6.408;2022-07-23T22:56:15;7.78;;;3.30;;
59207;SDS011;44977;53.132;6.408;2022-07-23T23:01:16;6.75;;;3.58;;
59207;SDS011;44977;53.132;6.408;2022-07-23T23:06:16;6.07;;;2.90;;
59207;SDS011;44977;53.132;6.408;2022-07-23T23:11:17;5.85;;;3.10;;
59207;SDS011;44977;53.132;6.408;2022-07-23T23:16:18;5.53;;;2.90;;
59207;SDS011;44977;53.132;6.408;2022-07-23T23:21:18;6.65;;;3.42;;
59207;SDS011;44977;53.132;6.408;2022-07-23T23:26:19;7.00;;;3.47;;
59207;SDS011;44977;53.132;6.408;2022-07-23T23:31:20;5.93;;;3.20;;
59207;SDS011;44977;53.132;6.408;2022-07-23T23:36:21;5.78;;;3.20;;
59207;SDS011;44977;53.132;6.408;2022-07-23T23:41:22;5.10;;;3.13;;
59207;SDS011;44977;53.132;6.408;2022-07-23T23:46:24;7.13;;;3.47;;
59207;SDS011;44977;53.132;6.408;2022-07-23T23:51:24;6.68;;;3.60;;
59207;SDS011;44977;53.132;6.408;2022-07-23T23:56:25;6.43;;;3.60;;
